createdAt,value
2018-07-13T00:02:20.085Z,9.03
2018-07-13T00:04:48.396Z,8.27
2018-07-13T00:07:16.754Z,8.53
2018-07-13T00:09:45.091Z,8.83
2018-07-13T00:12:13.444Z,6.57
2018-07-13T00:14:56.699Z,7.37
2018-07-13T00:17:25.036Z,7.43
2018-07-13T00:19:53.339Z,6.87
2018-07-13T00:22:21.658Z,6.80
2018-07-13T00:24:49.966Z,7.67
2018-07-13T00:27:18.324Z,7.87
2018-07-13T00:29:46.640Z,6.80
2018-07-13T00:32:14.957Z,7.57
2018-07-13T00:34:43.303Z,6.90
2018-07-13T00:37:11.917Z,7.80
2018-07-13T00:39:40.253Z,7.33
2018-07-13T00:42:08.612Z,7.37
2018-07-13T00:44:36.940Z,6.57
2018-07-13T00:47:05.271Z,6.63
2018-07-13T00:49:33.700Z,6.50
2018-07-13T00:52:02.079Z,7.23
2018-07-13T00:54:30.384Z,7.20
2018-07-13T00:56:58.700Z,6.53
2018-07-13T00:59:27.003Z,6.77
2018-07-13T01:01:55.324Z,7.67
2018-07-13T01:04:23.649Z,7.33
2018-07-13T01:06:52.099Z,7.63
2018-07-13T01:09:20.441Z,6.43
2018-07-13T01:11:48.784Z,7.00
2018-07-13T01:14:17.123Z,6.83
2018-07-13T01:16:45.449Z,6.30
2018-07-13T01:19:13.769Z,6.73
2018-07-13T01:21:42.103Z,7.77
2018-07-13T01:24:10.509Z,6.70
2018-07-13T01:26:38.829Z,7.17
2018-07-13T01:29:07.144Z,6.70
2018-07-13T01:31:35.532Z,7.63
2018-07-13T01:34:03.863Z,7.90
2018-07-13T01:36:32.188Z,7.53
2018-07-13T01:39:00.503Z,8.90
2018-07-13T01:41:28.819Z,7.10
2018-07-13T01:43:57.116Z,8.00
2018-07-13T01:46:26.049Z,8.10
2018-07-13T01:48:54.364Z,7.93
2018-07-13T01:51:22.665Z,6.70
2018-07-13T01:53:50.979Z,7.27
2018-07-13T01:56:19.324Z,7.33
2018-07-13T01:58:47.889Z,9.47
2018-07-13T02:01:16.228Z,9.30
2018-07-13T02:03:45.195Z,8.77
2018-07-13T02:06:13.516Z,8.10
2018-07-13T02:08:41.829Z,8.80
2018-07-13T02:11:10.193Z,8.80
2018-07-13T02:13:38.532Z,9.40
2018-07-13T02:16:06.896Z,7.93
2018-07-13T02:18:35.201Z,10.23
2018-07-13T02:21:03.524Z,9.20
2018-07-13T02:23:31.888Z,9.47
2018-07-13T02:26:00.256Z,9.17
2018-07-13T02:28:28.564Z,9.30
2018-07-13T02:30:56.884Z,9.10
2018-07-13T02:33:25.218Z,10.07
2018-07-13T02:35:53.512Z,9.27
2018-07-13T02:38:22.609Z,9.83
2018-07-13T02:40:50.916Z,9.43
2018-07-13T02:43:19.235Z,10.00
2018-07-13T02:45:47.536Z,9.60
2018-07-13T02:48:15.856Z,10.53
2018-07-13T02:50:44.169Z,9.77
2018-07-13T02:53:12.508Z,9.83
2018-07-13T02:55:40.808Z,10.70
2018-07-13T02:58:09.133Z,9.73
2018-07-13T03:00:37.489Z,10.53
2018-07-13T03:03:05.896Z,9.23
2018-07-13T03:05:34.232Z,11.50
2018-07-13T03:08:03.400Z,11.23
2018-07-13T03:10:31.774Z,10.43
2018-07-13T03:13:00.068Z,10.20
2018-07-13T03:15:28.384Z,11.50
2018-07-13T03:17:56.694Z,11.03
2018-07-13T03:20:25.035Z,11.60
2018-07-13T03:22:53.445Z,12.03
2018-07-13T03:25:21.791Z,12.33
2018-07-13T03:27:50.095Z,11.00
2018-07-13T03:30:18.411Z,10.93
2018-07-13T03:32:46.743Z,12.33
2018-07-13T03:35:15.127Z,12.20
2018-07-13T03:37:44.428Z,13.10
2018-07-13T03:40:12.804Z,13.90
2018-07-13T03:42:41.156Z,11.40
2018-07-13T03:45:09.468Z,12.90
2018-07-13T03:47:37.787Z,12.03
2018-07-13T03:50:06.812Z,11.47
2018-07-13T03:52:35.136Z,12.10
2018-07-13T03:55:03.813Z,13.13
2018-07-13T03:57:32.157Z,13.37
2018-07-13T04:00:00.516Z,13.53
2018-07-13T04:02:33.008Z,12.33
2018-07-13T04:05:01.735Z,13.40
2018-07-13T04:07:30.070Z,13.10
2018-07-13T04:09:58.400Z,14.20
2018-07-13T04:12:26.730Z,13.00
2018-07-13T04:14:55.046Z,13.17
2018-07-13T04:17:23.380Z,12.87
2018-07-13T04:19:51.704Z,14.07
2018-07-13T04:22:20.080Z,12.83
2018-07-13T04:24:48.519Z,13.80
2018-07-13T04:27:16.915Z,13.33
2018-07-13T04:29:46.324Z,12.43
2018-07-13T04:32:14.754Z,13.67
2018-07-13T04:34:43.233Z,12.90
2018-07-13T04:37:11.648Z,12.50
2018-07-13T04:39:40.395Z,13.00
2018-07-13T04:42:09.148Z,12.57
2018-07-13T04:44:37.488Z,12.90
2018-07-13T04:47:06.748Z,13.67
2018-07-13T04:49:35.190Z,12.20
2018-07-13T04:52:03.557Z,12.10
2018-07-13T04:54:32.108Z,11.77
2018-07-13T04:57:00.597Z,12.80
2018-07-13T04:59:28.999Z,15.00
2018-07-13T05:01:57.416Z,15.33
2018-07-13T05:04:25.799Z,13.47
2018-07-13T05:06:54.192Z,12.70
2018-07-13T05:09:22.620Z,13.30
2018-07-13T05:11:51.044Z,14.30
2018-07-13T05:14:19.404Z,15.43
2018-07-13T05:16:47.790Z,12.97
2018-07-13T05:19:16.116Z,12.57
2018-07-13T05:21:44.489Z,12.97
2018-07-13T05:24:12.893Z,11.40
2018-07-13T05:26:41.304Z,11.60
2018-07-13T05:29:09.732Z,12.83
2018-07-13T05:31:38.385Z,11.63
2018-07-13T05:34:06.855Z,12.63
2018-07-13T05:36:35.362Z,13.37
2018-07-13T05:39:04.533Z,12.97
2018-07-13T05:41:32.899Z,13.00
2018-07-13T05:44:01.268Z,15.83
2018-07-13T05:46:29.745Z,14.57
2018-07-13T05:48:58.181Z,14.13
2018-07-13T05:51:26.572Z,15.77
2018-07-13T05:53:54.923Z,15.57
2018-07-13T05:56:23.431Z,15.03
2018-07-13T05:58:51.995Z,16.07
2018-07-13T06:01:20.423Z,16.20
2018-07-13T06:03:49.055Z,15.10
2018-07-13T06:06:17.715Z,12.80
2018-07-13T06:08:46.154Z,13.70
2018-07-13T06:11:14.620Z,13.77
2018-07-13T06:13:42.943Z,14.23
2018-07-13T06:16:11.486Z,15.10
2018-07-13T06:18:39.808Z,16.27
2018-07-13T06:21:08.158Z,15.63
2018-07-13T06:23:36.512Z,15.70
2018-07-13T06:26:04.842Z,15.73
2018-07-13T06:28:33.180Z,16.33
2018-07-13T06:31:01.556Z,14.93
2018-07-13T06:33:29.964Z,16.90
2018-07-13T06:35:58.385Z,14.83
2018-07-13T06:38:26.752Z,20.23
2018-07-13T06:40:55.164Z,16.27
2018-07-13T06:43:23.512Z,23.80
2018-07-13T06:45:51.888Z,18.50
2018-07-13T06:48:20.236Z,15.40
2018-07-13T06:50:48.619Z,14.53
2018-07-13T06:53:17.260Z,14.87
2018-07-13T06:55:45.681Z,15.50
2018-07-13T06:58:25.328Z,15.20
2018-07-13T07:00:55.968Z,14.93
2018-07-13T07:03:25.063Z,13.80
2018-07-13T07:05:54.156Z,14.80
2018-07-13T07:08:23.309Z,15.27
2018-07-13T07:10:51.728Z,13.93
2018-07-13T07:13:26.152Z,13.57
2018-07-13T07:15:54.723Z,14.13
2018-07-13T07:18:23.107Z,14.83
2018-07-13T07:20:51.487Z,13.80
2018-07-13T07:23:19.867Z,13.70
2018-07-13T07:25:48.288Z,14.70
2018-07-13T07:28:16.626Z,13.30
2018-07-13T07:30:45.108Z,16.13
2018-07-13T07:33:13.355Z,13.67
2018-07-13T07:35:41.660Z,13.80
2018-07-13T07:38:09.988Z,13.57
2018-07-13T07:40:38.361Z,14.23
2018-07-13T07:43:06.703Z,12.33
2018-07-13T07:45:35.049Z,12.63
2018-07-13T07:48:03.423Z,13.87
2018-07-13T07:50:31.736Z,14.53
2018-07-13T07:53:00.116Z,15.57
2018-07-13T07:55:28.436Z,20.27
2018-07-13T07:57:56.768Z,13.50
2018-07-13T08:00:25.146Z,13.43
2018-07-13T08:02:53.636Z,21.57
2018-07-13T08:05:22.067Z,11.87
2018-07-13T08:07:50.372Z,13.47
2018-07-13T08:10:18.725Z,10.50
2018-07-13T08:12:47.069Z,11.10
2018-07-13T08:15:15.409Z,10.77
2018-07-13T08:17:43.728Z,11.60
2018-07-13T08:20:15.408Z,11.13
2018-07-13T08:22:49.223Z,10.70
2018-07-13T08:25:17.627Z,10.00
2018-07-13T08:27:49.104Z,9.23
2018-07-13T08:30:19.340Z,11.70
2018-07-13T08:32:48.113Z,10.17
2018-07-13T08:35:17.044Z,6.90
2018-07-13T08:37:46.095Z,10.50
2018-07-13T08:40:14.404Z,8.60
2018-07-13T08:42:43.016Z,8.93
2018-07-13T08:45:11.572Z,9.87
2018-07-13T08:47:39.932Z,9.37
2018-07-13T08:50:08.671Z,8.30
2018-07-13T08:52:37.055Z,8.07
2018-07-13T08:55:08.855Z,8.10
2018-07-13T08:57:37.364Z,6.83
2018-07-13T09:00:06.092Z,8.40
2018-07-13T09:02:34.492Z,7.30
2018-07-13T09:05:03.808Z,7.27
2018-07-13T09:07:33.647Z,8.97
2018-07-13T09:10:01.987Z,7.07
2018-07-13T09:12:30.779Z,7.17
2018-07-13T09:14:59.168Z,7.33
2018-07-13T09:17:27.580Z,5.97
2018-07-13T09:19:55.936Z,9.00
2018-07-13T09:22:24.248Z,8.50
2018-07-13T09:24:52.588Z,9.30
2018-07-13T09:27:21.094Z,9.13
2018-07-13T09:29:49.439Z,8.93
2018-07-13T09:32:18.140Z,7.70
2018-07-13T09:34:46.788Z,8.77
2018-07-13T09:37:15.212Z,7.67
2018-07-13T09:39:43.569Z,7.50
2018-07-13T09:42:12.136Z,6.80
2018-07-13T09:44:41.023Z,7.20
2018-07-13T09:47:09.352Z,7.80
2018-07-13T09:49:37.684Z,7.30
2018-07-13T09:52:06.055Z,6.23
2018-07-13T09:54:34.409Z,4.70
2018-07-13T09:57:02.778Z,4.00
2018-07-13T09:59:31.148Z,4.80
2018-07-13T10:01:59.528Z,4.53
2018-07-13T10:04:27.908Z,5.60
2018-07-13T10:06:56.346Z,6.33
2018-07-13T10:09:24.644Z,5.00
2018-07-13T10:11:52.995Z,4.60
2018-07-13T10:14:21.372Z,5.97
2018-07-13T10:16:49.743Z,4.37
2018-07-13T10:19:18.091Z,5.20
2018-07-13T10:21:47.691Z,4.30
2018-07-13T10:24:16.903Z,3.80
2018-07-13T10:26:45.294Z,4.10
2018-07-13T10:29:18.127Z,3.43
2018-07-13T10:31:46.382Z,4.20
2018-07-13T10:34:16.259Z,4.50
2018-07-13T10:36:47.665Z,3.77
2018-07-13T10:39:16.018Z,3.90
2018-07-13T10:41:44.350Z,5.03
2018-07-13T10:44:12.675Z,3.83
2018-07-13T10:46:41.058Z,4.50
2018-07-13T10:49:09.376Z,3.53
2018-07-13T10:51:37.758Z,3.70
2018-07-13T10:54:06.011Z,3.30
2018-07-13T10:56:34.357Z,2.77
2018-07-13T10:59:03.260Z,3.93
2018-07-13T11:01:31.587Z,3.23
2018-07-13T11:04:00.108Z,2.90
2018-07-13T11:06:28.470Z,4.10
2018-07-13T11:08:56.800Z,3.10
2018-07-13T11:11:25.108Z,4.37
2018-07-13T11:13:53.498Z,3.53
2018-07-13T11:16:21.708Z,2.43
2018-07-13T11:18:50.037Z,4.23
2018-07-13T11:21:18.355Z,3.87
2018-07-13T11:23:46.657Z,3.90
2018-07-13T11:26:14.976Z,3.20
2018-07-13T11:28:43.280Z,3.10
2018-07-13T11:31:11.597Z,3.20
2018-07-13T11:33:39.908Z,2.27
2018-07-13T11:36:08.216Z,2.40
2018-07-13T11:38:36.509Z,2.20
2018-07-13T11:41:04.857Z,2.83
2018-07-13T11:43:33.200Z,2.53
2018-07-13T11:46:01.620Z,2.13
2018-07-13T11:48:30.324Z,2.63
2018-07-13T11:50:59.023Z,2.80
2018-07-13T11:53:27.325Z,1.67
2018-07-13T11:55:55.662Z,2.40
2018-07-13T11:58:23.964Z,2.23
2018-07-13T12:00:52.292Z,1.67
2018-07-13T12:03:20.608Z,2.00
2018-07-13T12:05:49.428Z,2.20
2018-07-13T12:08:17.722Z,1.97
2018-07-13T12:10:46.040Z,1.83
2018-07-13T12:13:14.338Z,1.80
2018-07-13T12:15:42.685Z,1.90
2018-07-13T12:18:11.055Z,2.20
2018-07-13T12:20:39.675Z,1.93
2018-07-13T12:23:08.045Z,1.67
2018-07-13T12:25:37.060Z,2.00
2018-07-13T12:28:06.195Z,2.50
2018-07-13T12:30:34.524Z,2.00
2018-07-13T12:33:03.226Z,2.27
2018-07-13T12:35:32.167Z,2.33
2018-07-13T12:38:00.803Z,1.53
2018-07-13T12:40:29.064Z,1.50
2018-07-13T12:42:58.388Z,1.90
2018-07-13T12:45:26.740Z,2.20
2018-07-13T12:47:55.072Z,2.30
2018-07-13T12:50:23.496Z,1.73
2018-07-13T12:52:51.804Z,1.53
2018-07-13T12:55:20.109Z,1.80
2018-07-13T12:57:48.424Z,1.93
2018-07-13T13:00:17.304Z,1.43
2018-07-13T13:02:45.645Z,1.90
2018-07-13T13:05:13.956Z,2.03
2018-07-13T13:07:42.876Z,1.70
2018-07-13T13:10:11.171Z,2.17
2018-07-13T13:12:39.525Z,2.53
2018-07-13T13:15:08.080Z,2.07
2018-07-13T13:17:36.400Z,1.90
2018-07-13T13:20:04.752Z,2.10
2018-07-13T13:22:33.128Z,2.47
2018-07-13T13:25:02.069Z,2.17
2018-07-13T13:27:30.420Z,2.33
2018-07-13T13:29:58.739Z,2.03
2018-07-13T13:32:27.364Z,2.90
2018-07-13T13:34:55.878Z,2.03
2018-07-13T13:37:24.856Z,2.30
2018-07-13T13:39:53.319Z,3.17
2018-07-13T13:42:21.809Z,1.80
2018-07-13T13:44:50.128Z,2.40
2018-07-13T13:47:18.440Z,2.80
2018-07-13T13:49:46.770Z,3.00
2018-07-13T13:52:16.252Z,2.00
2018-07-13T13:54:44.572Z,2.30
2018-07-13T13:57:12.870Z,1.90
2018-07-13T13:59:41.250Z,2.30
2018-07-13T14:02:09.556Z,2.50
2018-07-13T14:04:37.892Z,2.13
2018-07-13T14:07:06.377Z,2.10
2018-07-13T14:09:34.716Z,2.20
2018-07-13T14:12:03.136Z,2.30
2018-07-13T14:14:31.596Z,1.53
2018-07-13T14:16:59.836Z,2.20
2018-07-13T14:19:28.220Z,1.90
2018-07-13T14:21:56.544Z,1.70
2018-07-13T14:24:24.932Z,2.23
2018-07-13T14:26:53.388Z,2.57
2018-07-13T14:29:21.714Z,2.40
2018-07-13T14:31:50.014Z,2.00
2018-07-13T14:34:18.468Z,1.90
2018-07-13T14:36:46.800Z,1.60
2018-07-13T14:39:15.106Z,1.73
2018-07-13T14:41:43.400Z,1.87
2018-07-13T14:44:11.732Z,1.50
2018-07-13T14:46:40.090Z,1.90
2018-07-13T14:49:08.599Z,1.70
2018-07-13T14:51:36.937Z,2.13
2018-07-13T14:54:05.782Z,1.97
2018-07-13T14:56:34.212Z,1.63
2018-07-13T14:59:02.535Z,2.43
2018-07-13T15:01:30.970Z,1.70
2018-07-13T15:03:59.352Z,2.30
2018-07-13T15:06:27.734Z,1.80
2018-07-13T15:08:55.949Z,2.67
2018-07-13T15:11:24.284Z,1.70
2018-07-13T15:13:52.601Z,1.50
2018-07-13T15:16:20.912Z,2.40
2018-07-13T15:18:49.268Z,1.93
2018-07-13T15:21:18.217Z,1.50
2018-07-13T15:23:46.520Z,1.97
2018-07-13T15:26:14.850Z,1.87
2018-07-13T15:28:43.205Z,2.40
2018-07-13T15:31:11.522Z,2.40
2018-07-13T15:33:39.891Z,2.03
2018-07-13T15:36:08.187Z,1.80
2018-07-13T15:38:36.541Z,1.60
2018-07-13T15:41:04.878Z,1.90
2018-07-13T15:43:33.244Z,1.90
2018-07-13T15:46:01.582Z,2.00
2018-07-13T15:48:29.894Z,2.07
2018-07-13T15:50:58.192Z,2.43
2018-07-13T15:53:26.560Z,1.70
2018-07-13T15:55:58.334Z,3.20
2018-07-13T15:58:27.271Z,1.80
2018-07-13T16:00:55.836Z,1.50
2018-07-13T16:03:24.405Z,2.53
2018-07-13T16:05:52.883Z,1.70
2018-07-13T16:08:21.296Z,1.43
2018-07-13T16:10:49.673Z,2.40
2018-07-13T16:13:17.928Z,1.93
2018-07-13T16:15:46.244Z,1.77
2018-07-13T16:18:14.608Z,2.00
2018-07-13T16:20:42.932Z,2.17
2018-07-13T16:23:11.308Z,1.50
2018-07-13T16:25:39.775Z,2.07
2018-07-13T16:28:08.204Z,1.60
2018-07-13T16:30:36.467Z,2.43
2018-07-13T16:33:05.143Z,1.90
2018-07-13T16:35:33.466Z,2.83
2018-07-13T16:38:01.812Z,2.67
2018-07-13T16:40:30.129Z,1.97
2018-07-13T16:42:58.468Z,2.17
2018-07-13T16:45:26.856Z,1.83
2018-07-13T16:47:55.196Z,1.87
2018-07-13T16:50:23.507Z,2.40
2018-07-13T16:52:52.311Z,1.90
2018-07-13T16:55:20.679Z,2.30
2018-07-13T16:57:48.972Z,2.10
2018-07-13T17:00:17.302Z,1.80
2018-07-13T17:02:45.604Z,2.90
2018-07-13T17:05:14.231Z,4.00
2018-07-13T17:07:42.527Z,2.30
2018-07-13T17:10:10.861Z,2.83
2018-07-13T17:12:39.184Z,2.00
2018-07-13T17:15:07.620Z,3.27
2018-07-13T17:17:35.972Z,1.83
2018-07-13T17:20:04.408Z,2.03
2018-07-13T17:22:33.169Z,2.40
2018-07-13T17:25:02.042Z,3.37
2018-07-13T17:27:30.895Z,1.70
2018-07-13T17:29:59.208Z,2.17
2018-07-13T17:32:27.844Z,1.73
2018-07-13T17:34:56.444Z,2.43
2018-07-13T17:37:32.980Z,2.70
2018-07-13T17:40:01.422Z,2.23
2018-07-13T17:42:29.809Z,2.33
2018-07-13T17:44:58.117Z,2.23
2018-07-13T17:47:26.554Z,2.13
2018-07-13T17:49:54.893Z,1.80
2018-07-13T17:52:23.341Z,2.20
2018-07-13T17:54:51.696Z,2.17
2018-07-13T17:57:20.138Z,1.93
2018-07-13T17:59:48.448Z,1.90
2018-07-13T18:02:16.748Z,2.27
2018-07-13T18:04:45.100Z,2.23
2018-07-13T18:07:13.642Z,2.60
2018-07-13T18:09:42.226Z,1.73
2018-07-13T18:12:11.559Z,2.60
2018-07-13T18:14:39.917Z,2.63
2018-07-13T18:17:08.235Z,2.27
2018-07-13T18:19:36.676Z,2.33
2018-07-13T18:22:04.979Z,2.47
2018-07-13T18:24:33.964Z,3.00
2018-07-13T18:27:02.332Z,2.80
2018-07-13T18:29:30.644Z,2.03
2018-07-13T18:31:59.017Z,2.93
2018-07-13T18:34:27.332Z,2.73
2018-07-13T18:36:55.665Z,2.80
2018-07-13T18:39:24.093Z,2.37
2018-07-13T18:41:52.504Z,2.73
2018-07-13T18:44:20.851Z,2.23
2018-07-13T18:46:49.192Z,3.67
2018-07-13T18:49:18.260Z,4.27
2018-07-13T18:51:46.697Z,3.17
2018-07-13T18:54:15.150Z,3.93
2018-07-13T18:56:43.477Z,3.00
2018-07-13T18:59:11.889Z,2.83
2018-07-13T19:01:40.217Z,2.70
2018-07-13T19:04:08.686Z,2.93
2018-07-13T19:06:37.229Z,2.27
2018-07-13T19:09:06.580Z,2.73
2018-07-13T19:11:34.909Z,3.20
2018-07-13T19:14:03.445Z,2.20
2018-07-13T19:16:31.792Z,2.53
2018-07-13T19:19:00.864Z,2.83
2018-07-13T19:21:29.387Z,3.17
2018-07-13T19:23:57.728Z,3.43
2018-07-13T19:26:26.113Z,3.07
2018-07-13T19:28:54.453Z,3.20
2018-07-13T19:31:22.899Z,2.70
2018-07-13T19:33:51.247Z,2.70
2018-07-13T19:36:19.596Z,2.97
2018-07-13T19:38:47.947Z,3.33
2018-07-13T19:41:16.356Z,3.60
2018-07-13T19:43:44.716Z,3.73
2018-07-13T19:46:13.039Z,3.60
2018-07-13T19:48:42.005Z,3.33
2018-07-13T19:51:10.466Z,3.47
2018-07-13T19:53:38.889Z,2.97
2018-07-13T19:56:07.436Z,2.90
2018-07-13T19:58:35.846Z,4.80
2018-07-13T20:01:04.260Z,5.20
2018-07-13T20:03:32.605Z,4.90
2018-07-13T20:06:01.024Z,6.40
2018-07-13T20:08:29.430Z,4.33
2018-07-13T20:10:58.355Z,4.57
2018-07-13T20:13:26.737Z,4.17
2018-07-13T20:15:55.133Z,4.70
2018-07-13T20:18:23.758Z,3.80
2018-07-13T20:20:52.314Z,3.40
2018-07-13T20:23:20.670Z,3.30
2018-07-13T20:25:48.973Z,2.90
2018-07-13T20:28:17.340Z,4.27
2018-07-13T20:30:45.700Z,3.47
2018-07-13T20:33:14.101Z,3.83
2018-07-13T20:35:42.653Z,2.73
2018-07-13T20:38:11.012Z,3.33
2018-07-13T20:40:39.346Z,3.10
2018-07-13T20:43:07.768Z,3.30
2018-07-13T20:45:36.075Z,3.07
2018-07-13T20:48:04.580Z,2.97
2018-07-13T20:50:33.248Z,3.20
2018-07-13T20:53:02.808Z,3.07
2018-07-13T20:55:31.212Z,2.93
2018-07-13T20:57:59.509Z,3.60
2018-07-13T21:00:28.104Z,2.97
2018-07-13T21:02:56.461Z,3.57
2018-07-13T21:05:24.988Z,3.70
2018-07-13T21:07:53.332Z,3.10
2018-07-13T21:10:21.787Z,3.20
2018-07-13T21:12:50.130Z,3.23
2018-07-13T21:15:18.445Z,3.43
2018-07-13T21:17:46.756Z,3.47
2018-07-13T21:20:15.184Z,25.57
2018-07-13T21:22:43.574Z,11.80
2018-07-13T21:25:11.886Z,6.47
2018-07-13T21:27:40.248Z,6.60
2018-07-13T21:30:08.796Z,3.40
2018-07-13T21:32:37.167Z,3.70
2018-07-13T21:35:06.117Z,3.60
2018-07-13T21:37:34.566Z,3.60
2018-07-13T21:40:02.947Z,3.63
2018-07-13T21:42:31.287Z,3.10
2018-07-13T21:45:01.284Z,3.80
2018-07-13T21:47:29.620Z,3.93
2018-07-13T21:49:57.950Z,3.67
2018-07-13T21:52:26.354Z,3.63
2018-07-13T21:54:54.960Z,3.30
2018-07-13T21:57:23.309Z,3.63
2018-07-13T21:59:51.680Z,3.50
2018-07-13T22:02:20.024Z,4.07
2018-07-13T22:04:48.323Z,4.90
2018-07-13T22:07:16.644Z,3.83
2018-07-13T22:09:47.764Z,3.70
2018-07-13T22:12:16.152Z,5.47
2018-07-13T22:14:44.483Z,4.23
2018-07-13T22:17:13.476Z,4.60
2018-07-13T22:19:42.457Z,4.27
2018-07-13T22:22:11.372Z,4.27
2018-07-13T22:24:39.739Z,5.20
2018-07-13T22:27:08.052Z,4.67
2018-07-13T22:29:36.365Z,5.50
2018-07-13T22:32:04.890Z,8.10
2018-07-13T22:34:34.692Z,6.00
2018-07-13T22:37:03.038Z,5.50
2018-07-13T22:39:31.485Z,6.30
2018-07-13T22:41:59.783Z,5.57
2018-07-13T22:44:28.112Z,6.07
2018-07-13T22:46:56.484Z,5.90
2018-07-13T22:49:24.800Z,4.90
2018-07-13T22:51:53.105Z,5.53
2018-07-13T22:54:21.448Z,5.63
2018-07-13T22:56:49.768Z,7.27
2018-07-13T22:59:18.084Z,6.10
2018-07-13T23:01:46.400Z,6.40
2018-07-13T23:04:14.744Z,6.60
2018-07-13T23:06:43.652Z,6.70
2018-07-13T23:09:12.032Z,5.67
2018-07-13T23:11:40.357Z,6.30
2018-07-13T23:17:00.632Z,6.70
2018-07-13T23:19:28.955Z,5.37
2018-07-13T23:21:57.292Z,5.83
2018-07-13T23:24:25.690Z,5.70
2018-07-13T23:26:54.617Z,5.90
2018-07-13T23:29:22.943Z,6.10
2018-07-13T23:31:51.248Z,6.80
2018-07-13T23:34:19.602Z,6.60
2018-07-13T23:36:47.924Z,5.30
2018-07-13T23:39:16.256Z,6.10
2018-07-13T23:41:44.551Z,5.40
2018-07-13T23:44:12.892Z,5.70
2018-07-13T23:46:41.215Z,5.47
2018-07-13T23:49:10.291Z,6.40
2018-07-13T23:51:38.600Z,5.53
2018-07-13T23:54:06.928Z,6.10
2018-07-13T23:56:35.255Z,5.70
2018-07-13T23:59:03.588Z,5.90
